createdAt,value
2022-10-20T00:01:25.169Z,8.07
2022-10-20T00:03:53.894Z,8.20
2022-10-20T00:06:25.518Z,6.20
2022-10-20T00:08:54.647Z,7.13
2022-10-20T00:11:23.737Z,6.80
2022-10-20T00:13:53.371Z,7.70
2022-10-20T00:16:22.232Z,9.97
2022-10-20T00:18:49.589Z,7.90
2022-10-20T00:21:24.018Z,9.10
2022-10-20T00:23:51.601Z,7.27
2022-10-20T00:26:29.422Z,9.30
2022-10-20T00:28:56.862Z,8.17
2022-10-20T00:31:25.269Z,9.67
2022-10-20T00:33:52.767Z,12.33
2022-10-20T00:36:22.746Z,10.23
2022-10-20T00:38:50.639Z,8.20
2022-10-20T00:41:20.884Z,9.13
2022-10-20T00:43:59.417Z,10.23
2022-10-20T00:46:42.852Z,12.10
2022-10-20T00:49:25.260Z,8.67
2022-10-20T00:51:54.794Z,8.83
2022-10-20T00:54:27.291Z,8.43
2022-10-20T00:56:56.615Z,11.10
2022-10-20T00:59:29.849Z,9.97
2022-10-20T01:02:00.724Z,8.93
2022-10-20T01:04:30.963Z,9.80
2022-10-20T01:06:58.822Z,9.03
2022-10-20T01:09:26.050Z,11.40
2022-10-20T01:12:31.552Z,8.40
2022-10-20T01:15:31.889Z,11.10
2022-10-20T01:18:21.909Z,8.97
2022-10-20T01:21:04.668Z,8.97
2022-10-20T01:24:32.436Z,10.57
2022-10-20T01:27:21.510Z,11.63
2022-10-20T01:30:16.209Z,9.13
2022-10-20T01:33:32.613Z,10.53
2022-10-20T01:36:14.234Z,11.17
2022-10-20T01:39:09.349Z,10.43
2022-10-20T01:41:50.342Z,8.67
2022-10-20T01:44:21.293Z,8.73
2022-10-20T01:46:49.088Z,11.20
2022-10-20T01:49:16.701Z,10.33
2022-10-20T01:51:43.847Z,12.53
2022-10-20T01:54:26.391Z,8.80
2022-10-20T01:57:24.117Z,11.43
2022-10-20T02:00:14.672Z,9.60
2022-10-20T02:03:00.389Z,10.77
2022-10-20T02:06:00.726Z,11.07
2022-10-20T02:08:50.391Z,10.83
2022-10-20T02:12:00.938Z,10.10
2022-10-20T02:14:29.662Z,8.60
2022-10-20T02:17:04.015Z,11.80
2022-10-20T02:19:39.463Z,11.03
2022-10-20T02:22:09.981Z,11.20
2022-10-20T02:24:40.374Z,12.10
2022-10-20T02:27:39.492Z,12.13
2022-10-20T02:30:11.341Z,9.50
2022-10-20T02:32:42.128Z,11.67
2022-10-20T02:35:18.518Z,11.60
2022-10-20T02:37:45.592Z,10.97
2022-10-20T02:40:12.914Z,12.53
2022-10-20T02:42:40.852Z,12.07
2022-10-20T02:45:08.593Z,13.70
2022-10-20T02:47:35.970Z,11.20
2022-10-20T02:50:03.196Z,11.57
2022-10-20T02:52:31.237Z,13.30
2022-10-20T02:54:58.529Z,13.90
2022-10-20T02:57:26.380Z,13.30
2022-10-20T02:59:53.629Z,12.83
2022-10-20T03:02:20.442Z,12.33
2022-10-20T03:04:47.330Z,14.83
2022-10-20T03:07:15.189Z,14.77
2022-10-20T03:09:44.239Z,11.97
2022-10-20T03:12:11.169Z,13.70
2022-10-20T03:14:38.153Z,15.83
2022-10-20T03:17:05.058Z,12.57
2022-10-20T03:19:32.176Z,14.67
2022-10-20T03:21:59.154Z,14.27
2022-10-20T03:24:26.285Z,14.53
2022-10-20T03:26:53.190Z,13.43
2022-10-20T03:29:20.160Z,13.33
2022-10-20T03:31:47.057Z,12.90
2022-10-20T03:34:14.034Z,12.33
2022-10-20T03:36:40.945Z,12.13
2022-10-20T03:39:07.943Z,13.60
2022-10-20T03:41:34.869Z,12.67
2022-10-20T03:44:02.073Z,14.97
2022-10-20T03:46:29.143Z,12.33
2022-10-20T03:48:56.397Z,13.00
2022-10-20T03:51:23.372Z,11.43
2022-10-20T03:53:50.283Z,11.43
2022-10-20T03:56:20.430Z,12.73
2022-10-20T03:58:49.556Z,11.83
2022-10-20T04:01:20.713Z,10.20
2022-10-20T04:03:47.744Z,14.00
2022-10-20T04:06:15.864Z,13.20
2022-10-20T04:08:42.846Z,12.20
2022-10-20T04:11:10.265Z,13.13
2022-10-20T04:13:37.203Z,10.53
2022-10-20T04:16:04.155Z,12.30
2022-10-20T04:18:32.767Z,12.67
2022-10-20T04:21:00.045Z,12.30
2022-10-20T04:23:27.097Z,11.63
2022-10-20T04:25:54.022Z,11.90
2022-10-20T04:28:21.366Z,14.40
2022-10-20T04:30:49.447Z,13.47
2022-10-20T04:33:17.302Z,12.17
2022-10-20T04:35:44.215Z,10.57
2022-10-20T04:38:11.306Z,13.03
2022-10-20T04:40:38.192Z,12.37
2022-10-20T04:43:05.182Z,15.80
2022-10-20T04:45:32.022Z,14.07
2022-10-20T04:48:00.263Z,11.13
2022-10-20T04:50:27.102Z,12.73
2022-10-20T04:53:08.144Z,13.30
2022-10-20T04:55:35.896Z,14.87
2022-10-20T04:58:02.796Z,12.73
2022-10-20T05:00:30.172Z,13.93
2022-10-20T05:02:57.039Z,10.13
2022-10-20T05:05:27.259Z,11.03
2022-10-20T05:07:54.084Z,11.60
2022-10-20T05:10:21.078Z,11.43
2022-10-20T05:12:48.129Z,12.53
2022-10-20T05:15:15.540Z,11.70
2022-10-20T05:17:42.526Z,11.77
2022-10-20T05:20:09.955Z,12.40
2022-10-20T05:22:37.134Z,10.80
2022-10-20T05:25:31.288Z,12.13
2022-10-20T05:27:52.284Z,11.73
2022-10-20T05:30:19.270Z,12.13
2022-10-20T05:32:46.990Z,11.23
2022-10-20T05:35:14.056Z,13.10
2022-10-20T05:37:41.285Z,11.90
2022-10-20T05:40:09.357Z,11.83
2022-10-20T05:42:36.881Z,12.07
2022-10-20T05:45:05.724Z,11.30
2022-10-20T05:47:34.379Z,10.27
2022-10-20T05:50:01.362Z,10.83
2022-10-20T05:52:28.326Z,16.27
2022-10-20T05:54:55.143Z,11.93
2022-10-20T05:57:22.132Z,9.73
2022-10-20T05:59:49.041Z,12.33
2022-10-20T06:02:16.008Z,12.57
2022-10-20T06:04:43.012Z,12.27
2022-10-20T06:07:10.088Z,11.73
2022-10-20T06:09:39.039Z,14.00
2022-10-20T06:14:33.723Z,11.80
2022-10-20T06:17:00.660Z,10.50
2022-10-20T06:19:27.786Z,11.93
2022-10-20T06:21:54.718Z,12.40
2022-10-20T06:24:21.634Z,11.00
2022-10-20T06:26:48.602Z,12.23
2022-10-20T06:29:18.935Z,11.60
2022-10-20T06:31:51.893Z,11.97
2022-10-20T06:34:22.339Z,12.07
2022-10-20T06:36:51.040Z,11.53
2022-10-20T06:39:23.854Z,11.57
2022-10-20T06:41:53.685Z,10.87
2022-10-20T06:44:23.765Z,11.70
2022-10-20T06:46:52.452Z,10.23
2022-10-20T06:49:20.787Z,12.43
2022-10-20T06:51:48.991Z,11.87
2022-10-20T06:54:16.383Z,11.70
2022-10-20T06:56:43.222Z,11.27
2022-10-20T06:59:10.177Z,12.43
2022-10-20T07:01:39.176Z,9.63
2022-10-20T07:04:13.538Z,12.77
2022-10-20T07:06:44.447Z,9.63
2022-10-20T07:09:18.159Z,10.13
2022-10-20T07:11:52.477Z,10.17
2022-10-20T07:14:20.475Z,10.63
2022-10-20T07:16:47.574Z,12.13
2022-10-20T07:19:14.557Z,10.13
2022-10-20T07:21:45.284Z,9.50
2022-10-20T07:24:13.665Z,9.40
2022-10-20T07:26:41.771Z,9.37
2022-10-20T07:29:10.084Z,10.30
2022-10-20T07:31:46.663Z,11.37
2022-10-20T07:34:25.843Z,14.23
2022-10-20T07:36:56.030Z,10.27
2022-10-20T07:39:23.922Z,9.83
2022-10-20T07:41:51.133Z,9.50
2022-10-20T07:44:18.205Z,12.73
2022-10-20T07:46:45.144Z,10.27
2022-10-20T07:51:59.420Z,9.03
2022-10-20T07:54:26.403Z,9.90
2022-10-20T07:56:53.274Z,9.80
2022-10-20T07:59:20.177Z,9.40
2022-10-20T08:01:47.330Z,9.17
2022-10-20T08:04:14.183Z,9.23
2022-10-20T08:06:41.066Z,8.93
2022-10-20T08:09:08.175Z,9.83
2022-10-20T08:11:35.723Z,11.87
2022-10-20T08:14:02.723Z,8.83
2022-10-20T08:16:35.763Z,9.03
2022-10-20T08:19:18.905Z,9.00
2022-10-20T08:21:45.738Z,8.20
2022-10-20T08:24:12.659Z,9.63
2022-10-20T08:26:39.548Z,8.57
2022-10-20T08:29:06.537Z,10.67
2022-10-20T08:31:33.435Z,10.97
2022-10-20T08:34:00.576Z,12.43
2022-10-20T08:36:28.221Z,9.23
2022-10-20T08:38:56.332Z,8.63
2022-10-20T08:41:55.400Z,10.43
2022-10-20T08:44:31.701Z,7.93
2022-10-20T08:47:02.790Z,8.27
2022-10-20T08:49:34.589Z,8.30
2022-10-20T08:52:02.722Z,9.20
2022-10-20T08:54:33.408Z,8.38
2022-10-20T08:57:00.386Z,7.83
2022-10-20T08:59:32.916Z,8.85
2022-10-20T09:02:01.988Z,10.73
2022-10-20T09:07:49.709Z,7.30
2022-10-20T09:10:16.452Z,11.05
2022-10-20T09:12:46.747Z,10.50
2022-10-20T09:15:16.558Z,8.63
2022-10-20T09:17:54.180Z,7.15
2022-10-20T09:20:33.180Z,7.47
2022-10-20T09:23:01.585Z,7.85
2022-10-20T09:25:32.614Z,7.88
2022-10-20T09:27:59.512Z,7.65
2022-10-20T09:30:29.153Z,7.15
2022-10-20T09:33:01.588Z,10.23
2022-10-20T09:35:39.664Z,10.68
2022-10-20T09:38:32.387Z,7.45
2022-10-20T09:41:23.413Z,10.85
2022-10-20T09:44:06.653Z,7.05
2022-10-20T09:46:44.662Z,9.10
2022-10-20T09:49:43.337Z,8.45
2022-10-20T09:52:23.708Z,6.80
2022-10-20T09:54:59.240Z,7.15
2022-10-20T09:57:26.730Z,8.52
2022-10-20T09:59:58.679Z,7.50
2022-10-20T10:02:32.485Z,9.40
2022-10-20T10:05:19.859Z,7.75
2022-10-20T10:07:59.025Z,10.17
2022-10-20T10:10:33.894Z,9.05
2022-10-20T10:13:02.561Z,7.72
2022-10-20T10:15:34.944Z,8.95
2022-10-20T10:18:21.524Z,8.50
2022-10-20T10:20:59.151Z,7.93
2022-10-20T10:23:30.598Z,7.35
2022-10-20T10:26:02.093Z,9.63
2022-10-20T10:28:41.796Z,11.32
2022-10-20T10:31:17.411Z,7.47
2022-10-20T10:33:44.282Z,10.00
2022-10-20T10:36:37.072Z,9.00
2022-10-20T10:39:15.245Z,9.33
2022-10-20T10:42:09.204Z,7.77
2022-10-20T10:45:11.572Z,10.83
2022-10-20T10:47:50.525Z,8.27
2022-10-20T10:50:28.574Z,8.47
2022-10-20T10:53:20.657Z,7.87
2022-10-20T10:58:55.935Z,7.30
2022-10-20T11:01:56.399Z,10.43
2022-10-20T11:04:53.207Z,11.77
2022-10-20T11:07:57.003Z,12.10
2022-10-20T11:11:07.077Z,10.13
2022-10-20T11:14:07.180Z,7.97
2022-10-20T11:17:09.720Z,11.10
2022-10-20T11:20:32.302Z,9.23
2022-10-20T11:23:58.043Z,11.23
2022-10-20T11:26:39.425Z,9.17
2022-10-20T11:29:25.078Z,7.77
2022-10-20T11:32:12.193Z,9.10
2022-10-20T11:35:14.315Z,8.57
2022-10-20T11:38:22.920Z,9.50
2022-10-20T11:41:00.803Z,8.57
2022-10-20T11:43:40.969Z,9.77
2022-10-20T11:46:28.452Z,9.07
2022-10-20T11:48:59.122Z,10.57
2022-10-20T11:51:31.606Z,9.57
2022-10-20T11:54:23.500Z,8.40
2022-10-20T11:57:31.328Z,8.63
2022-10-20T12:00:33.665Z,8.95
2022-10-20T12:03:38.150Z,8.80
2022-10-20T12:06:38.861Z,7.80
2022-10-20T12:09:47.739Z,8.23
2022-10-20T12:12:48.221Z,8.02
2022-10-20T12:15:23.302Z,9.25
2022-10-20T12:17:53.826Z,8.43
2022-10-20T12:20:20.609Z,10.68
2022-10-20T12:22:52.546Z,9.48
2022-10-20T12:25:25.022Z,12.27
2022-10-20T12:28:20.942Z,9.73
2022-10-20T12:31:02.535Z,9.30
2022-10-20T12:33:41.879Z,9.00
2022-10-20T12:36:36.507Z,9.60
2022-10-20T12:39:12.202Z,8.15
2022-10-20T12:41:55.372Z,8.75
2022-10-20T12:44:23.552Z,10.65
2022-10-20T12:47:29.304Z,10.02
2022-10-20T12:50:10.144Z,10.02
2022-10-20T12:52:40.433Z,10.25
2022-10-20T12:55:18.463Z,9.60
2022-10-20T12:57:46.763Z,7.90
2022-10-20T13:00:19.086Z,7.80
2022-10-20T13:02:50.911Z,7.22
2022-10-20T13:05:17.839Z,8.63
2022-10-20T13:07:52.396Z,9.35
2022-10-20T13:10:29.511Z,7.88
2022-10-20T13:13:02.517Z,7.07
2022-10-20T13:15:34.306Z,9.63
2022-10-20T13:18:13.359Z,7.22
2022-10-20T13:20:46.147Z,7.60
2022-10-20T13:23:17.413Z,9.00
2022-10-20T13:25:55.228Z,6.60
2022-10-20T13:28:27.251Z,8.13
2022-10-20T13:31:25.204Z,7.47
2022-10-20T13:34:20.961Z,6.55
2022-10-20T13:37:22.533Z,6.80
2022-10-20T13:40:14.242Z,8.13
2022-10-20T13:43:23.450Z,8.40
2022-10-20T13:46:05.198Z,6.68
2022-10-20T13:48:37.779Z,7.20
2022-10-20T13:51:21.358Z,7.47
2022-10-20T13:53:55.161Z,6.43
2022-10-20T13:56:42.300Z,8.63
2022-10-20T13:59:15.203Z,8.70
2022-10-20T14:02:04.558Z,7.72
2022-10-20T14:04:37.473Z,8.50
2022-10-20T14:07:17.272Z,7.55
2022-10-20T14:09:47.466Z,6.40
2022-10-20T14:12:26.874Z,8.23
2022-10-20T14:15:01.718Z,7.35
2022-10-20T14:17:29.397Z,6.50
2022-10-20T14:20:30.509Z,6.30
2022-10-20T14:23:00.449Z,8.73
2022-10-20T14:25:30.649Z,6.70
2022-10-20T14:28:00.353Z,8.02
2022-10-20T14:30:29.329Z,7.70
2022-10-20T14:32:56.487Z,8.57
2022-10-20T14:35:39.662Z,6.53
2022-10-20T14:38:29.967Z,5.50
2022-10-20T14:40:59.211Z,8.48
2022-10-20T14:43:42.585Z,5.70
2022-10-20T14:46:20.219Z,6.97
2022-10-20T14:48:50.888Z,7.00
2022-10-20T14:51:39.329Z,7.38
2022-10-20T14:54:21.282Z,7.93
2022-10-20T14:57:07.712Z,9.95
2022-10-20T14:59:55.840Z,7.85
2022-10-20T15:02:42.600Z,6.85
2022-10-20T15:05:40.638Z,6.53
2022-10-20T15:08:26.600Z,5.25
2022-10-20T15:10:54.338Z,10.10
2022-10-20T15:13:27.780Z,5.75
2022-10-20T15:15:59.354Z,4.70
2022-10-20T15:18:30.287Z,5.75
2022-10-20T15:20:57.436Z,5.57
2022-10-20T15:23:29.462Z,6.57
2022-10-20T15:26:05.419Z,6.57
2022-10-20T15:28:45.351Z,7.38
2022-10-20T15:31:25.221Z,4.72
2022-10-20T15:33:53.814Z,4.93
2022-10-20T15:36:28.182Z,5.32
2022-10-20T15:38:56.670Z,4.55
2022-10-20T15:41:28.145Z,5.65
2022-10-20T15:43:55.130Z,8.20
2022-10-20T15:46:22.426Z,7.82
2022-10-20T15:48:49.680Z,8.50
2022-10-20T15:51:32.992Z,4.95
2022-10-20T15:54:00.346Z,5.32
2022-10-20T15:56:27.375Z,8.30
2022-10-20T15:58:54.498Z,5.63
2022-10-20T16:01:22.544Z,5.78
2022-10-20T16:03:50.280Z,6.50
2022-10-20T16:06:19.128Z,9.63
2022-10-20T16:08:49.048Z,5.78
2022-10-20T16:11:20.660Z,6.47
2022-10-20T16:13:48.813Z,7.50
2022-10-20T16:16:18.918Z,6.32
2022-10-20T16:18:46.590Z,6.75
2022-10-20T16:21:13.763Z,7.10
2022-10-20T16:23:42.623Z,6.32
2022-10-20T16:26:14.157Z,6.95
2022-10-20T16:28:41.360Z,6.28
2022-10-20T16:31:11.656Z,6.32
2022-10-20T16:33:38.595Z,8.38
2022-10-20T16:36:09.614Z,6.57
2022-10-20T16:38:39.934Z,6.90
2022-10-20T16:41:11.927Z,7.75
2022-10-20T16:43:42.157Z,8.32
2022-10-20T16:46:11.935Z,8.30
2022-10-20T16:48:41.433Z,8.55
2022-10-20T16:51:13.405Z,7.57
2022-10-20T16:53:40.342Z,8.80
2022-10-20T16:56:07.934Z,8.55
2022-10-20T16:58:35.792Z,7.22
2022-10-20T17:01:10.865Z,7.75
2022-10-20T17:03:47.060Z,7.60
2022-10-20T17:06:16.894Z,8.75
2022-10-20T17:08:44.507Z,10.48
2022-10-20T17:11:25.822Z,8.30
2022-10-20T17:13:53.775Z,8.95
2022-10-20T17:16:35.532Z,8.20
2022-10-20T17:19:03.015Z,8.60
2022-10-20T17:21:31.950Z,8.02
2022-10-20T17:23:59.966Z,8.18
2022-10-20T17:26:32.954Z,9.52
2022-10-20T17:29:02.412Z,8.40
2022-10-20T17:31:30.324Z,9.07
2022-10-20T17:33:59.077Z,8.93
2022-10-20T17:36:28.478Z,8.48
2022-10-20T17:38:59.122Z,8.10
2022-10-20T17:41:26.734Z,8.02
2022-10-20T17:43:53.635Z,9.98
2022-10-20T17:46:21.241Z,11.80
2022-10-20T17:48:48.249Z,7.47
2022-10-20T17:51:22.190Z,8.13
2022-10-20T17:53:52.359Z,9.25
2022-10-20T17:56:24.685Z,7.78
2022-10-20T17:58:52.079Z,8.93
2022-10-20T18:01:29.925Z,9.32
2022-10-20T18:04:12.923Z,8.65
2022-10-20T18:06:41.460Z,7.47
2022-10-20T18:09:12.878Z,8.15
2022-10-20T18:11:44.324Z,7.72
2022-10-20T18:14:11.387Z,9.02
2022-10-20T18:16:40.364Z,9.88
2022-10-20T18:19:09.077Z,10.23
2022-10-20T18:21:36.253Z,8.00
2022-10-20T18:24:07.128Z,7.47
2022-10-20T18:26:36.594Z,6.95
2022-10-20T18:29:06.586Z,9.18
2022-10-20T18:31:37.699Z,7.97
2022-10-20T18:34:08.480Z,10.73
2022-10-20T18:36:40.448Z,9.98
2022-10-20T18:39:10.715Z,10.27
2022-10-20T18:41:40.236Z,7.13
2022-10-20T18:44:12.374Z,9.80
2022-10-20T18:46:40.182Z,7.07
2022-10-20T18:49:08.675Z,8.52
2022-10-20T18:51:36.995Z,9.73
2022-10-20T18:54:07.046Z,8.18
2022-10-20T18:56:35.764Z,8.02
2022-10-20T18:59:08.991Z,9.35
2022-10-20T19:01:39.009Z,8.00
2022-10-20T19:04:09.060Z,7.32
2022-10-20T19:06:45.694Z,9.57
2022-10-20T19:09:21.719Z,7.30
2022-10-20T19:14:22.942Z,9.68
2022-10-20T19:16:50.145Z,8.18
2022-10-20T19:19:17.290Z,8.02
2022-10-20T19:21:44.989Z,8.10
2022-10-20T19:24:16.509Z,7.30
2022-10-20T19:27:02.084Z,7.78
2022-10-20T19:29:35.562Z,10.13
2022-10-20T19:32:05.139Z,9.23
2022-10-20T19:34:39.546Z,8.93
2022-10-20T19:37:07.830Z,8.95
2022-10-20T19:39:41.898Z,10.10
2022-10-20T19:42:10.455Z,8.27
2022-10-20T19:44:38.369Z,7.93
2022-10-20T19:47:06.478Z,8.97
2022-10-20T19:49:34.141Z,9.40
2022-10-20T19:52:01.183Z,8.57
2022-10-20T19:54:29.019Z,9.63
2022-10-20T19:56:56.124Z,7.63
2022-10-20T19:59:23.174Z,7.43
2022-10-20T20:01:52.278Z,9.53
2022-10-20T20:04:19.630Z,8.07
2022-10-20T20:06:46.533Z,7.30
2022-10-20T20:09:15.691Z,9.23
2022-10-20T20:11:44.161Z,8.90
2022-10-20T20:14:16.559Z,9.90
2022-10-20T20:16:45.789Z,7.50
2022-10-20T20:19:15.095Z,7.43
2022-10-20T20:21:41.987Z,10.43
2022-10-20T20:24:13.652Z,8.17
2022-10-20T20:26:40.734Z,8.77
2022-10-20T20:29:07.651Z,8.67
2022-10-20T20:31:35.796Z,8.07
2022-10-20T20:34:02.795Z,9.00
2022-10-20T20:36:30.460Z,8.63
2022-10-20T20:38:59.417Z,8.00
2022-10-20T20:41:30.612Z,9.37
2022-10-20T20:43:58.000Z,10.82
2022-10-20T20:46:29.351Z,9.93
2022-10-20T20:48:58.070Z,7.30
2022-10-20T20:51:26.916Z,13.33
2022-10-20T20:53:53.821Z,10.47
2022-10-20T20:56:23.266Z,9.55
2022-10-20T20:58:55.186Z,8.43
2022-10-20T21:01:29.051Z,7.13
2022-10-20T21:04:03.386Z,9.30
2022-10-20T21:07:00.290Z,7.73
2022-10-20T21:09:18.746Z,8.30
2022-10-20T21:11:46.699Z,8.73
2022-10-20T21:14:13.543Z,9.40
2022-10-20T21:16:40.387Z,7.03
2022-10-20T21:19:09.946Z,8.77
2022-10-20T21:21:43.461Z,9.30
2022-10-20T21:24:12.658Z,8.57
2022-10-20T21:26:40.183Z,10.03
2022-10-20T21:29:07.201Z,7.60
2022-10-20T21:31:36.798Z,8.43
2022-10-20T21:34:05.770Z,8.67
2022-10-20T21:36:36.124Z,9.27
2022-10-20T21:39:06.596Z,8.33
2022-10-20T21:41:36.217Z,8.77
2022-10-20T21:44:09.135Z,8.20
2022-10-20T21:46:47.181Z,8.30
2022-10-20T21:49:18.536Z,8.47
2022-10-20T21:51:49.795Z,7.87
2022-10-20T21:56:49.428Z,7.77
2022-10-20T21:59:21.664Z,8.40
2022-10-20T22:01:49.908Z,10.40
2022-10-20T22:04:19.122Z,8.77
2022-10-20T22:06:46.393Z,9.83
2022-10-20T22:09:15.202Z,8.53
2022-10-20T22:11:48.921Z,8.10
2022-10-20T22:14:15.815Z,8.10
2022-10-20T22:16:43.314Z,8.50
2022-10-20T22:19:20.406Z,8.00
2022-10-20T22:21:49.735Z,9.57
2022-10-20T22:24:18.692Z,8.53
2022-10-20T22:26:46.601Z,12.00
2022-10-20T22:29:13.703Z,8.50
2022-10-20T22:31:41.762Z,9.70
2022-10-20T22:34:09.554Z,9.83
2022-10-20T22:36:36.867Z,11.30
2022-10-20T22:39:05.499Z,9.87
2022-10-20T22:41:32.633Z,8.10
2022-10-20T22:43:59.544Z,10.67
2022-10-20T22:46:26.715Z,11.50
2022-10-20T22:48:53.690Z,9.30
2022-10-20T22:51:20.604Z,9.87
2022-10-20T22:53:47.494Z,8.43
2022-10-20T22:56:18.923Z,8.83
2022-10-20T22:58:47.681Z,7.83
2022-10-20T23:01:21.699Z,8.77
2022-10-20T23:03:49.125Z,8.87
2022-10-20T23:06:23.926Z,9.20
2022-10-20T23:08:54.970Z,8.73
2022-10-20T23:11:23.988Z,9.80
2022-10-20T23:13:51.260Z,9.20
2022-10-20T23:16:19.690Z,9.67
2022-10-20T23:18:47.329Z,8.57
2022-10-20T23:21:15.022Z,9.53
2022-10-20T23:23:42.228Z,9.63
2022-10-20T23:26:09.354Z,8.80
2022-10-20T23:28:38.196Z,9.97
2022-10-20T23:31:08.436Z,8.17
2022-10-20T23:33:36.985Z,8.23
2022-10-20T23:36:04.433Z,12.60
2022-10-20T23:38:32.536Z,8.90
2022-10-20T23:41:01.057Z,8.37
2022-10-20T23:43:28.260Z,14.10
2022-10-20T23:50:27.386Z,10.20
2022-10-20T23:52:54.408Z,7.83
2022-10-20T23:55:21.441Z,8.40
2022-10-20T23:57:50.729Z,8.53
